Terminal Aerodrome Forecast
Issued by NWS Portland, ME

Home | Current Version | Previous Version | Text Only | Print | Product List | Glossary On
Versions: 1 2 3 4 5 6 7 8 9 10 11 12 13 14 15 16 17 18 19 20 21 22
000
FTUS41 KGYX 020901 AAB
TAFCON
TAF AMD
KCON 020901Z 0209/0306 00000KT P6SM SCT002
      TEMPO 0209/0212 2SM BR BKN002
     FM021400 26007KT P6SM SCT250
     FM030000 00000KT P6SM SCT250=

USA.gov is the U.S. government's official web portal to all federal, state and local government web resources and services.